createdAt,value
2023-05-06T08:09:25.107Z,22.86
2023-05-06T08:15:37.689Z,22.31
2023-05-06T08:21:42.046Z,22.30
2023-05-06T08:27:49.815Z,22.23
2023-05-06T08:34:08.262Z,23.00
2023-05-06T08:40:39.169Z,23.68
2023-05-06T08:46:43.118Z,23.72
2023-05-06T08:59:14.190Z,22.60
2023-05-06T09:05:29.256Z,22.88
2023-05-06T09:11:35.455Z,22.64
2023-05-06T09:17:42.588Z,23.87
2023-05-06T09:23:47.937Z,24.27
2023-05-06T09:36:28.939Z,24.34
2023-05-06T09:42:34.096Z,24.26
2023-05-06T09:48:39.676Z,24.64
2023-05-06T09:54:47.204Z,25.28
2023-05-06T10:00:57.140Z,25.85
2023-05-06T10:07:06.504Z,24.46
2023-05-06T10:13:17.287Z,24.79
2023-05-06T10:19:26.990Z,25.14
2023-05-06T10:25:41.352Z,25.04
2023-05-06T10:31:56.454Z,24.35
2023-05-06T10:38:04.576Z,24.16
2023-05-06T10:44:08.275Z,23.94
2023-05-06T10:50:40.683Z,23.92
2023-05-06T10:56:58.950Z,24.14
2023-05-06T11:03:23.369Z,24.28
2023-05-06T11:09:34.160Z,24.43
2023-05-06T11:15:58.893Z,24.67
2023-05-06T11:22:07.616Z,25.13
2023-05-06T11:28:14.943Z,24.94
2023-05-06T11:34:33.786Z,24.94
2023-05-06T11:40:44.020Z,24.83
2023-05-06T11:53:43.629Z,25.56
2023-05-06T11:59:56.079Z,25.77
2023-05-06T12:06:09.290Z,24.90
2023-05-06T12:12:21.395Z,24.69
2023-05-06T12:18:45.030Z,24.72
2023-05-06T12:24:59.693Z,24.92
2023-05-06T12:31:27.224Z,25.58
2023-05-06T12:37:35.903Z,25.63
2023-05-06T12:43:43.648Z,25.31
2023-05-06T12:50:03.784Z,25.23
2023-05-06T12:56:13.729Z,25.45
2023-05-06T13:02:18.307Z,24.85
2023-05-06T13:08:25.139Z,25.55
2023-05-06T13:14:41.901Z,25.42
2023-05-06T13:20:51.961Z,25.35
2023-05-06T13:27:04.553Z,25.61
2023-05-06T13:33:13.607Z,25.42
2023-05-06T13:39:21.436Z,25.56
2023-05-06T13:45:27.414Z,26.04
2023-05-06T13:51:35.253Z,25.32
2023-05-06T13:57:56.716Z,25.48
2023-05-06T14:04:01.920Z,25.27
2023-05-06T14:10:45.960Z,25.70
2023-05-06T14:17:00.557Z,25.18
2023-05-06T14:23:19.159Z,25.49
2023-05-06T14:29:24.206Z,25.85
2023-05-06T14:35:31.389Z,25.86
2023-05-06T14:41:39.334Z,25.79
2023-05-06T14:47:46.747Z,25.80
2023-05-06T14:53:51.488Z,25.47
2023-05-06T15:00:02.432Z,25.17
2023-05-06T15:12:28.345Z,25.25
2023-05-06T15:18:33.452Z,25.17
2023-05-06T15:24:40.964Z,25.08
2023-05-06T15:30:49.255Z,25.15
2023-05-06T15:37:04.099Z,25.33
2023-05-06T15:43:13.824Z,25.02
2023-05-06T15:55:35.159Z,24.64
2023-05-06T16:02:25.461Z,24.52
2023-05-06T16:08:15.223Z,24.09
2023-05-06T16:14:24.827Z,24.02
2023-05-06T16:26:52.084Z,23.62
2023-05-06T16:32:57.636Z,23.46
2023-05-06T16:39:02.960Z,23.46
2023-05-06T16:45:14.948Z,23.21
2023-05-06T16:51:22.784Z,23.01
2023-05-06T16:57:33.446Z,22.74
2023-05-06T17:03:41.921Z,22.61
2023-05-06T17:09:53.954Z,22.44
2023-05-06T17:16:08.791Z,22.40
2023-05-06T17:22:12.201Z,22.32
2023-05-06T17:28:24.488Z,22.19
2023-05-06T17:34:33.821Z,22.03
2023-05-06T17:40:44.128Z,21.87
2023-05-06T17:46:49.181Z,21.62
2023-05-06T17:52:55.222Z,21.50
2023-05-06T17:59:04.159Z,21.50
2023-05-06T18:05:09.328Z,21.44
2023-05-06T18:11:20.732Z,21.36
2023-05-06T18:23:43.857Z,21.48
2023-05-06T18:29:46.128Z,21.43
2023-05-06T18:35:49.766Z,21.27
2023-05-06T18:41:52.576Z,21.15
2023-05-06T18:47:57.681Z,21.06
2023-05-06T18:54:03.148Z,20.96
2023-05-06T19:00:09.142Z,20.84
2023-05-06T19:06:26.943Z,20.74
2023-05-06T19:12:30.966Z,20.67
2023-05-06T19:18:34.499Z,20.59
2023-05-06T19:24:38.887Z,20.49
2023-05-06T19:30:47.585Z,20.36
2023-05-06T19:37:09.580Z,20.19
2023-05-06T19:43:25.298Z,20.14
2023-05-06T19:49:33.450Z,19.99
2023-05-06T19:55:50.768Z,19.88
2023-05-06T20:01:57.698Z,19.81
2023-05-06T20:08:03.088Z,19.71
2023-05-06T20:14:11.458Z,19.63
2023-05-06T20:20:20.286Z,19.54
2023-05-06T20:26:33.032Z,19.45
2023-05-06T20:39:05.733Z,19.39
2023-05-06T20:45:11.602Z,19.24
2023-05-06T20:51:22.203Z,19.24
2023-05-06T20:57:34.301Z,19.33
2023-05-06T21:03:44.485Z,19.45
2023-05-06T21:09:49.058Z,19.39
2023-05-06T21:16:02.705Z,19.50
2023-05-06T21:22:17.510Z,19.60
2023-05-06T21:28:30.310Z,19.65
2023-05-06T21:34:36.931Z,19.63
2023-05-06T21:40:43.655Z,19.51
2023-05-06T21:46:52.503Z,19.33
2023-05-06T21:52:55.413Z,19.33
2023-05-06T21:59:02.911Z,19.28
2023-05-06T22:05:11.933Z,19.14
2023-05-06T22:11:14.841Z,19.17
2023-05-06T22:17:20.499Z,19.15
2023-05-06T22:23:24.639Z,19.19
2023-05-06T22:29:28.451Z,19.13
2023-05-06T22:35:30.834Z,18.93
2023-05-06T22:41:33.446Z,18.80
2023-05-06T22:47:36.232Z,18.86
2023-05-06T22:53:39.401Z,18.71
2023-05-06T22:59:43.885Z,18.60
2023-05-06T23:05:47.946Z,18.53
2023-05-06T23:11:58.554Z,18.48
2023-05-06T23:18:02.929Z,18.47
2023-05-06T23:24:08.911Z,18.33
2023-05-06T23:30:13.294Z,18.25
2023-05-06T23:36:20.471Z,18.28
2023-05-06T23:42:29.048Z,18.21
2023-05-06T23:48:46.551Z,18.05
2023-05-06T23:54:54.652Z,17.96
